Погода Qatanaна неделю

Дамаск, Сирия

18 - 24 июля
  • 18июля
    Сегодня
    +22°
    +38°
    Ясно и безоблачно
    ВремяПогодаТемператураВлажностьДавлениеВетер, м/сВероятность осадков
    00:00Ясно и безоблачно+24°C34 %684 мм2.6 м/с1 %
    03:00Ясно и безоблачно+23°C36 %684 мм2.4 м/с1 %
    06:00Ясно и безоблачно+22°C41 %684 мм2.1 м/с1 %
    09:00Ясно и безоблачно+31°C23 %686 мм0.2 м/с1 %
    12:00Ясно и безоблачно+36°C14 %686 мм0.9 м/с1 %
    15:00Ясно и безоблачно+38°C16 %685 мм1.7 м/с1 %
    18:00Ясно и безоблачно+34°C23 %684 мм5.4 м/с1 %
    21:00Ясно и безоблачно+29°C38 %684 мм3.7 м/с1 %
  • 19июля
    Пятница
    +21°
    +36°
    Ясно и безоблачно
    ВремяПогодаТемператураВлажностьДавлениеВетер, м/сВероятность осадков
    00:00Ясно и безоблачно+25°C41 %683 мм2.5 м/с1 %
    03:00Ясно и безоблачно+24°C45 %682 мм2.1 м/с1 %
    06:00Ясно и безоблачно+23°C53 %682 мм2.1 м/с1 %
    09:00Ясно и безоблачно+31°C31 %684 мм2.1 м/с1 %
    12:00Ясно и безоблачно+35°C20 %684 мм3.3 м/с1 %
    15:00Ясно и безоблачно+35°C23 %683 мм6.8 м/с1 %
    18:00Ясно и безоблачно+33°C28 %682 мм6.8 м/с1 %
    21:00Ясно и безоблачно+28°C43 %681 мм3.5 м/с1 %
  • 20июля
    Суббота
    +21°
    +36°
    Ясно и безоблачно
    ВремяПогодаТемператураВлажностьДавлениеВетер, м/сВероятность осадков
    00:00Ясно и безоблачно+25°C47 %681 мм2.3 м/с1 %
    03:00Ясно и безоблачно+23°C52 %680 мм2.1 м/с1 %
    06:00Ясно и безоблачно+22°C55 %680 мм1.9 м/с1 %
    09:00Ясно и безоблачно+30°C35 %683 мм1.3 м/с1 %
    12:00Ясно и безоблачно+35°C22 %683 мм2.7 м/с1 %
    15:00Ясно и безоблачно+35°C23 %682 мм6.3 м/с1 %
    18:00Ясно и безоблачно+33°C28 %682 мм6.5 м/с1 %
    21:00Ясно и безоблачно+28°C41 %682 мм3.4 м/с1 %
  • 21июля
    Воскресенье
    +23°
    +37°
    Ясно и безоблачно
    ВремяПогодаТемператураВлажностьДавлениеВетер, м/сВероятность осадков
    00:00Ясно и безоблачно+25°C41 %682 мм2.5 м/с1 %
    03:00Ясно и безоблачно+23°C44 %681 мм2.3 м/с1 %
    06:00Ясно и безоблачно+22°C40 %682 мм2.0 м/с1 %
    09:00Ясно и безоблачно+31°C24 %685 мм0.4 м/с1 %
    12:00Ясно и безоблачно+35°C15 %685 мм1.3 м/с1 %
    15:00Ясно и безоблачно+36°C18 %684 мм3.4 м/с1 %
    18:00Ясно и безоблачно+33°C23 %684 мм6.8 м/с1 %
    21:00Ясно и безоблачно+29°C31 %684 мм3.8 м/с1 %
  • 22июля
    Понедельник
    +23°
    +37°
    Ясно и безоблачно
    ВремяПогодаТемператураВлажностьДавлениеВетер, м/сВероятность осадков
    00:00Ясно и безоблачно+26°C28 %684 мм2.5 м/с1 %
    03:00Ясно и безоблачно+25°C27 %683 мм2.7 м/с1 %
    06:00Ясно и безоблачно+24°C29 %683 мм2.0 м/с1 %
    09:00Ясно и безоблачно+32°C21 %685 мм1.0 м/с1 %
    12:00Ясно и безоблачно+36°C15 %685 мм3.1 м/с1 %
    15:00Ясно и безоблачно+35°C21 %685 мм6.3 м/с1 %
    18:00Ясно и безоблачно+33°C23 %684 мм7.0 м/с2 %
    21:00Ясно и безоблачно+28°C31 %684 мм4.4 м/с1 %
Мы используем cookies
Соглашаюсь